createdAt,value
2017-04-16T00:00:44.459Z,1006.48
2017-04-16T00:01:54.733Z,1006.5
2017-04-16T00:03:04.482Z,1006.51
2017-04-16T00:04:14.761Z,1006.53
2017-04-16T00:05:24.749Z,1006.51
2017-04-16T00:06:34.717Z,1006.5
2017-04-16T00:07:44.364Z,1006.46
2017-04-16T00:08:54.341Z,1006.38
2017-04-16T00:10:04.564Z,1006.42
2017-04-16T00:11:14.839Z,1006.47
2017-04-16T00:12:25.119Z,1006.48
2017-04-16T00:13:35.403Z,1006.51
2017-04-16T00:14:45.715Z,1006.49
2017-04-16T00:15:55.682Z,1006.5
2017-04-16T00:17:05.962Z,1006.49
2017-04-16T00:18:15.942Z,1006.51
2017-04-16T00:19:25.597Z,1006.51
2017-04-16T00:20:35.574Z,1006.51
2017-04-16T00:21:45.797Z,1006.51
2017-04-16T00:22:55.769Z,1006.54
2017-04-16T00:24:05.438Z,1006.52
2017-04-16T00:25:15.736Z,1006.58
2017-04-16T00:26:25.712Z,1006.6
2017-04-16T00:27:36.240Z,1006.57
2017-04-16T00:28:45.897Z,1006.56
2017-04-16T00:29:56.198Z,1006.55
2017-04-16T00:31:06.490Z,1006.58
2017-04-16T00:32:16.776Z,1006.55
2017-04-16T00:33:27.368Z,1006.52
2017-04-16T00:34:37.673Z,1006.58
2017-04-16T00:35:47.637Z,1006.53
2017-04-16T00:36:57.917Z,1006.52
2017-04-16T00:38:07.885Z,1006.57
2017-04-16T00:39:18.423Z,1006.54
2017-04-16T00:40:28.392Z,1006.52
2017-04-16T00:41:38.728Z,1006.5
2017-04-16T00:42:48.893Z,1006.58
2017-04-16T00:43:58.571Z,1006.53
2017-04-16T00:45:08.797Z,1006.51
2017-04-16T00:46:19.086Z,1006.61
2017-04-16T00:47:29.388Z,1006.6
2017-04-16T00:48:39.671Z,1006.62
2017-04-16T00:49:49.969Z,1006.58
2017-04-16T00:51:00.500Z,1006.61
2017-04-16T00:52:10.809Z,1006.6
2017-04-16T00:53:20.772Z,1006.63
2017-04-16T00:54:30.744Z,1006.6
2017-04-16T00:55:40.728Z,1006.62
2017-04-16T00:56:51.250Z,1006.6
2017-04-16T00:58:01.544Z,1006.6
2017-04-16T00:59:11.832Z,1006.61
2017-04-16T01:00:22.114Z,1006.62
2017-04-16T01:01:32.391Z,1006.59
2017-04-16T01:02:41.984Z,1006.63
2017-04-16T01:03:51.948Z,1006.58
2017-04-16T01:05:01.915Z,1006.63
2017-04-16T01:06:11.880Z,1006.55
2017-04-16T01:07:22.157Z,1006.59
2017-04-16T01:08:32.741Z,1006.62
2017-04-16T01:09:42.711Z,1006.63
2017-04-16T01:10:52.995Z,1006.58
2017-04-16T01:12:02.964Z,1006.63
2017-04-16T01:13:13.250Z,1006.63
2017-04-16T01:14:23.785Z,1006.65
2017-04-16T01:15:34.073Z,1006.59
2017-04-16T01:16:44.349Z,1006.61
2017-04-16T01:17:54.625Z,1006.66
2017-04-16T01:19:04.895Z,1006.63
2017-04-16T01:20:15.486Z,1006.6
2017-04-16T01:21:25.769Z,1006.66
2017-04-16T01:22:35.742Z,1006.62
2017-04-16T01:23:46.025Z,1006.63
2017-04-16T01:24:56.320Z,1006.65
2017-04-16T01:26:06.855Z,1006.63
2017-04-16T01:27:17.142Z,1006.7
2017-04-16T01:28:27.415Z,1006.68
2017-04-16T01:29:37.709Z,1006.66
2017-04-16T01:30:48.010Z,1006.71
2017-04-16T01:31:58.283Z,1006.75
2017-04-16T01:33:08.268Z,1006.7
2017-04-16T01:34:18.542Z,1006.71
2017-04-16T01:35:28.826Z,1006.66
2017-04-16T01:36:39.103Z,1006.69
2017-04-16T01:37:49.375Z,1006.61
2017-04-16T01:38:59.290Z,1006.68
2017-04-16T01:40:09.581Z,1006.67
2017-04-16T01:41:19.547Z,1006.67
2017-04-16T01:42:29.256Z,1006.64
2017-04-16T01:43:39.678Z,1006.67
2017-04-16T01:44:49.864Z,1006.68
2017-04-16T01:46:00.143Z,1006.71
2017-04-16T01:47:10.106Z,1006.69
2017-04-16T01:48:20.401Z,1006.69
2017-04-16T01:49:30.984Z,1006.72
2017-04-16T01:50:41.260Z,1006.68
2017-04-16T01:51:51.545Z,1006.7
2017-04-16T01:53:00.892Z,1006.71
2017-04-16T01:54:10.877Z,1006.75
2017-04-16T01:55:21.173Z,1006.74
2017-04-16T01:56:31.144Z,1006.75
2017-04-16T01:57:41.429Z,1006.78
2017-04-16T01:58:51.394Z,1006.78
2017-04-16T02:00:01.392Z,1006.76
2017-04-16T02:01:11.942Z,1006.75
2017-04-16T02:02:22.224Z,1006.78
2017-04-16T02:03:32.199Z,1006.77
2017-04-16T02:04:41.871Z,1006.78
2017-04-16T02:05:52.149Z,1006.82
2017-04-16T02:07:02.670Z,1006.82
2017-04-16T02:08:12.639Z,1006.82
2017-04-16T02:09:22.920Z,1006.79
2017-04-16T02:10:32.882Z,1006.79
2017-04-16T02:11:42.863Z,1006.8
2017-04-16T02:12:53.392Z,1006.77
2017-04-16T02:14:03.366Z,1006.81
2017-04-16T02:15:13.656Z,1006.77
2017-04-16T02:16:23.950Z,1006.77
2017-04-16T02:17:33.630Z,1006.77
2017-04-16T02:18:43.920Z,1006.8
2017-04-16T02:19:54.223Z,1006.76
2017-04-16T02:21:04.501Z,1006.72
2017-04-16T02:22:14.777Z,1006.79
2017-04-16T02:23:24.743Z,1006.76
2017-04-16T02:24:35.562Z,1006.72
2017-04-16T02:25:45.835Z,1006.76
2017-04-16T02:26:55.803Z,1006.76
2017-04-16T02:28:05.776Z,1006.81
2017-04-16T02:29:16.074Z,1006.79
2017-04-16T02:30:26.608Z,1006.72
2017-04-16T02:31:36.587Z,1006.75
2017-04-16T02:32:46.913Z,1006.76
2017-04-16T02:33:57.205Z,1006.77
2017-04-16T02:35:07.484Z,1006.78
2017-04-16T02:36:18.058Z,1006.74
2017-04-16T02:37:28.042Z,1006.72
2017-04-16T02:38:38.075Z,1006.74
2017-04-16T02:39:48.088Z,1006.73
2017-04-16T02:40:58.377Z,1006.68
2017-04-16T02:42:08.916Z,1006.71
2017-04-16T02:43:19.193Z,1006.7
2017-04-16T02:44:29.484Z,1006.7
2017-04-16T02:45:39.456Z,1006.71
2017-04-16T02:46:49.740Z,1006.71
2017-04-16T02:48:00.323Z,1006.73
2017-04-16T02:49:10.613Z,1006.68
2017-04-16T02:50:20.593Z,1006.75
2017-04-16T02:51:30.563Z,1006.7
2017-04-16T02:52:40.842Z,1006.72
2017-04-16T02:53:51.368Z,1006.6
2017-04-16T02:55:01.652Z,1006.69
2017-04-16T02:56:11.932Z,1006.67
2017-04-16T02:57:22.211Z,1006.65
2017-04-16T02:58:31.871Z,1006.72
2017-04-16T02:59:42.404Z,1006.7
2017-04-16T03:00:52.677Z,1006.73
2017-04-16T03:02:02.951Z,1006.7
2017-04-16T03:03:13.246Z,1006.77
2017-04-16T03:04:23.637Z,1006.73
2017-04-16T03:05:34.360Z,1006.7
2017-04-16T03:06:44.708Z,1006.74
2017-04-16T03:07:54.737Z,1006.68
2017-04-16T03:09:04.706Z,1006.72
2017-04-16T03:10:14.989Z,1006.71
2017-04-16T03:11:25.275Z,1006.71
2017-04-16T03:12:35.235Z,1006.71
2017-04-16T03:13:45.215Z,1006.74
2017-04-16T03:14:54.877Z,1006.73
2017-04-16T03:16:04.842Z,1006.69
2017-04-16T03:17:15.062Z,1006.7
2017-04-16T03:18:25.353Z,1006.62
2017-04-16T03:19:35.641Z,1006.66
2017-04-16T03:20:45.924Z,1006.61
2017-04-16T03:21:55.892Z,1006.62
2017-04-16T03:23:06.111Z,1006.62
2017-04-16T03:24:16.081Z,1006.62
2017-04-16T03:25:26.047Z,1006.62
2017-04-16T03:26:36.326Z,1006.56
2017-04-16T03:27:46.609Z,1006.57
2017-04-16T03:28:57.142Z,1006.55
2017-04-16T03:30:06.799Z,1006.54
2017-04-16T03:31:17.072Z,1006.56
2017-04-16T03:32:27.349Z,1006.55
2017-04-16T03:33:37.028Z,1006.55
2017-04-16T03:34:47.566Z,1006.54
2017-04-16T03:35:57.848Z,1006.53
2017-04-16T03:37:07.890Z,1006.57
2017-04-16T03:38:17.029Z,1006.6
2017-04-16T03:39:27.340Z,1006.56
2017-04-16T03:40:37.945Z,1006.58
2017-04-16T03:41:47.950Z,1006.6
2017-04-16T03:42:57.912Z,1006.61
2017-04-16T03:44:08.199Z,1006.53
2017-04-16T03:45:18.174Z,1006.6
2017-04-16T03:46:28.087Z,1006.55
2017-04-16T03:47:38.368Z,1006.6
2017-04-16T03:48:48.662Z,1006.59
2017-04-16T03:49:58.640Z,1006.6
2017-04-16T03:51:07.983Z,1006.61
2017-04-16T03:52:18.513Z,1006.6
2017-04-16T03:53:28.803Z,1006.58
2017-04-16T03:54:39.092Z,1006.58
2017-04-16T03:55:48.777Z,1006.61
2017-04-16T03:56:58.750Z,1006.59
2017-04-16T03:58:09.011Z,1006.57
2017-04-16T03:59:19.298Z,1006.65
2017-04-16T04:00:29.578Z,1006.62
2017-04-16T04:01:39.863Z,1006.62
2017-04-16T04:02:50.149Z,1006.66
2017-04-16T04:04:00.685Z,1006.56
2017-04-16T04:05:10.663Z,1006.57
2017-04-16T04:06:20.948Z,1006.64
2017-04-16T04:07:31.225Z,1006.59
2017-04-16T04:08:41.516Z,1006.65
2017-04-16T04:09:52.110Z,1006.67
2017-04-16T04:11:02.756Z,1006.69
2017-04-16T04:12:13.164Z,1006.64
2017-04-16T04:13:23.450Z,1006.67
2017-04-16T04:14:33.833Z,1006.64
2017-04-16T04:15:44.051Z,1006.68
2017-04-16T04:16:54.036Z,1006.68
2017-04-16T04:18:04.010Z,1006.68
2017-04-16T04:19:14.312Z,1006.69
2017-04-16T04:20:24.297Z,1006.69
2017-04-16T04:21:34.512Z,1006.7
2017-04-16T04:22:44.495Z,1006.7
2017-04-16T04:23:53.839Z,1006.68
2017-04-16T04:25:04.116Z,1006.69
2017-04-16T04:26:14.392Z,1006.72
2017-04-16T04:27:24.918Z,1006.72
2017-04-16T04:28:35.235Z,1006.7
2017-04-16T04:29:45.519Z,1006.71
2017-04-16T04:30:55.807Z,1006.72
2017-04-16T04:32:06.095Z,1006.74
2017-04-16T04:33:16.626Z,1006.76
2017-04-16T04:34:26.609Z,1006.81
2017-04-16T04:35:36.583Z,1006.79
2017-04-16T04:36:46.881Z,1006.73
2017-04-16T04:37:57.154Z,1006.75
2017-04-16T04:39:07.685Z,1006.76
2017-04-16T04:40:17.962Z,1006.82
2017-04-16T04:41:27.949Z,1006.81
2017-04-16T04:42:38.227Z,1006.76
2017-04-16T04:43:48.509Z,1006.8
2017-04-16T04:44:59.229Z,1006.77
2017-04-16T04:46:09.512Z,1006.8
2017-04-16T04:47:19.659Z,1006.82
2017-04-16T04:48:29.942Z,1006.84
2017-04-16T04:49:40.254Z,1006.9
2017-04-16T04:50:50.786Z,1006.85
2017-04-16T04:52:00.760Z,1006.84
2017-04-16T04:53:11.064Z,1006.8
2017-04-16T04:54:21.038Z,1006.88
2017-04-16T04:55:30.699Z,1006.83
2017-04-16T04:56:41.242Z,1006.83
2017-04-16T04:57:51.521Z,1006.86
2017-04-16T04:59:01.496Z,1006.86
2017-04-16T05:00:11.786Z,1006.89
2017-04-16T05:01:22.062Z,1006.92
2017-04-16T05:02:32.325Z,1006.87
2017-04-16T05:03:42.625Z,1006.96
2017-04-16T05:04:52.917Z,1006.89
2017-04-16T05:06:03.203Z,1006.92
2017-04-16T05:07:12.872Z,1006.93
2017-04-16T05:08:23.465Z,1006.92
2017-04-16T05:09:33.445Z,1006.93
2017-04-16T05:10:42.789Z,1006.99
2017-04-16T05:11:53.067Z,1006.93
2017-04-16T05:13:03.026Z,1006.97
2017-04-16T05:14:12.944Z,1006.97
2017-04-16T05:15:22.946Z,1007.04
2017-04-16T05:16:33.299Z,1007.02
2017-04-16T05:17:43.273Z,1006.98
2017-04-16T05:18:53.853Z,1006.94
2017-04-16T05:20:04.624Z,1007.03
2017-04-16T05:21:14.904Z,1007.07
2017-04-16T05:22:25.179Z,1006.96
2017-04-16T05:23:35.164Z,1007.05
2017-04-16T05:24:45.450Z,1007
2017-04-16T05:25:55.981Z,1007.03
2017-04-16T05:27:05.963Z,1007.05
2017-04-16T05:28:16.236Z,1007.08
2017-04-16T05:29:26.221Z,1007.08
2017-04-16T05:30:36.501Z,1007.13
2017-04-16T05:31:47.030Z,1007.09
2017-04-16T05:32:56.692Z,1007.09
2017-04-16T05:34:06.657Z,1007.19
2017-04-16T05:35:16.940Z,1007.16
2017-04-16T05:36:27.456Z,1007.19
2017-04-16T05:37:37.690Z,1007.18
2017-04-16T05:38:47.662Z,1007.16
2017-04-16T05:39:57.635Z,1007.16
2017-04-16T05:41:07.610Z,1007.18
2017-04-16T05:42:17.585Z,1007.23
2017-04-16T05:43:28.115Z,1007.24
2017-04-16T05:44:38.405Z,1007.21
2017-04-16T05:45:48.379Z,1007.17
2017-04-16T05:46:58.362Z,1007.2
2017-04-16T05:48:08.324Z,1007.21
2017-04-16T05:49:18.855Z,1007.21
2017-04-16T05:50:28.671Z,1007.27
2017-04-16T05:51:38.942Z,1007.23
2017-04-16T05:52:48.924Z,1007.19
2017-04-16T05:53:58.944Z,1007.27
2017-04-16T05:55:09.528Z,1007.25
2017-04-16T05:56:19.519Z,1007.27
2017-04-16T05:57:29.818Z,1007.29
2017-04-16T05:58:40.093Z,1007.3
2017-04-16T05:59:50.382Z,1007.35
2017-04-16T06:01:00.604Z,1007.31
2017-04-16T06:02:10.881Z,1007.37
2017-04-16T06:03:21.169Z,1007.42
2017-04-16T06:04:31.454Z,1007.34
2017-04-16T06:05:41.433Z,1007.38
2017-04-16T06:06:51.979Z,1007.38
2017-04-16T06:08:01.952Z,1007.39
2017-04-16T06:09:12.243Z,1007.41
2017-04-16T06:10:22.535Z,1007.33
2017-04-16T06:11:32.827Z,1007.36
2017-04-16T06:12:43.350Z,1007.36
2017-04-16T06:13:53.626Z,1007.38
2017-04-16T06:15:03.589Z,1007.41
2017-04-16T06:16:13.247Z,1007.43
2017-04-16T06:17:23.538Z,1007.51
2017-04-16T06:18:34.067Z,1007.42
2017-04-16T06:19:44.046Z,1007.53
2017-04-16T06:20:54.333Z,1007.52
2017-04-16T06:22:04.608Z,1007.48
2017-04-16T06:23:14.893Z,1007.54
2017-04-16T06:24:25.481Z,1007.54
2017-04-16T06:25:35.765Z,1007.61
2017-04-16T06:26:46.053Z,1007.55
2017-04-16T06:27:56.025Z,1007.52
2017-04-16T06:29:06.302Z,1007.57
2017-04-16T06:30:16.851Z,1007.58
2017-04-16T06:31:27.344Z,1007.57
2017-04-16T06:32:37.730Z,1007.59
2017-04-16T06:33:48.196Z,1007.62
2017-04-16T06:34:58.165Z,1007.59
2017-04-16T06:36:08.389Z,1007.69
2017-04-16T06:37:18.668Z,1007.61
2017-04-16T06:38:28.647Z,1007.65
2017-04-16T06:39:38.936Z,1007.66
2017-04-16T06:40:49.230Z,1007.7
2017-04-16T06:41:59.808Z,1007.71
2017-04-16T06:43:09.776Z,1007.71
2017-04-16T06:44:19.769Z,1007.74
2017-04-16T06:45:30.051Z,1007.78
2017-04-16T06:46:40.021Z,1007.74
2017-04-16T06:47:49.928Z,1007.85
2017-04-16T06:49:00.218Z,1007.89
2017-04-16T06:50:10.501Z,1007.82
2017-04-16T06:51:20.149Z,1007.83
2017-04-16T06:52:30.125Z,1007.86
2017-04-16T06:53:40.044Z,1007.88
2017-04-16T06:54:50.031Z,1007.88
2017-04-16T06:55:59.696Z,1007.89
2017-04-16T06:57:09.985Z,1007.91
2017-04-16T06:58:20.260Z,1007.87
2017-04-16T06:59:30.484Z,1007.87
2017-04-16T07:00:40.778Z,1007.97
2017-04-16T07:01:51.075Z,1007.99
2017-04-16T07:03:01.049Z,1007.96
2017-04-16T07:04:11.340Z,1007.92
2017-04-16T07:05:21.613Z,1007.98
2017-04-16T07:06:31.901Z,1007.94
2017-04-16T07:07:41.879Z,1007.98
2017-04-16T07:08:52.165Z,1007.95
2017-04-16T07:10:02.290Z,1007.98
2017-04-16T07:11:13.040Z,1007.97
2017-04-16T07:12:23.373Z,1007.99
2017-04-16T07:13:33.715Z,1008.05
2017-04-16T07:14:44.006Z,1008.04
2017-04-16T07:15:54.305Z,1008.07
2017-04-16T07:17:04.835Z,1008.04
2017-04-16T07:18:15.117Z,1008.04
2017-04-16T07:19:25.087Z,1008.06
2017-04-16T07:20:34.758Z,1008.07
2017-04-16T07:21:45.039Z,1008.08
2017-04-16T07:22:55.568Z,1008.1
2017-04-16T07:24:05.558Z,1008.11
2017-04-16T07:25:15.839Z,1008.07
2017-04-16T07:26:26.129Z,1008.06
2017-04-16T07:27:36.106Z,1008.12
2017-04-16T07:28:46.337Z,1008.06
2017-04-16T07:29:56.626Z,1008.08
2017-04-16T07:31:06.904Z,1008.07
2017-04-16T07:32:17.190Z,1008.1
2017-04-16T07:33:27.195Z,1008.08
2017-04-16T07:34:37.738Z,1008.09
2017-04-16T07:35:47.717Z,1008.06
2017-04-16T07:36:57.688Z,1008.02
2017-04-16T07:38:07.975Z,1008.12
2017-04-16T07:39:18.270Z,1008.22
2017-04-16T07:40:28.806Z,1008.37
2017-04-16T07:41:39.117Z,1008.32
2017-04-16T07:42:49.405Z,1008.43
2017-04-16T07:43:59.381Z,1008.37
2017-04-16T07:45:09.663Z,1008.43
2017-04-16T07:46:20.207Z,1008.46
2017-04-16T07:47:30.184Z,1008.46
2017-04-16T07:48:40.522Z,1008.49
2017-04-16T07:49:50.518Z,1008.54
2017-04-16T07:51:00.907Z,1008.53
2017-04-16T07:52:10.985Z,1008.51
2017-04-16T07:53:21.271Z,1008.57
2017-04-16T07:54:31.397Z,1008.55
2017-04-16T07:55:41.401Z,1008.52
2017-04-16T07:56:51.679Z,1008.57
2017-04-16T07:58:01.952Z,1008.61
2017-04-16T07:59:11.934Z,1008.69
2017-04-16T08:00:22.232Z,1008.63
2017-04-16T08:01:32.528Z,1008.68
2017-04-16T08:02:42.497Z,1008.72
2017-04-16T08:03:53.028Z,1008.7
2017-04-16T08:05:03.310Z,1008.7
2017-04-16T08:06:13.282Z,1008.72
2017-04-16T08:07:23.264Z,1008.76
2017-04-16T08:08:33.233Z,1008.72
2017-04-16T08:09:43.457Z,1008.81
2017-04-16T08:10:53.753Z,1008.77
2017-04-16T08:12:03.720Z,1008.73
2017-04-16T08:13:13.997Z,1008.74
2017-04-16T08:14:24.275Z,1008.74
2017-04-16T08:15:34.852Z,1008.72
2017-04-16T08:16:44.815Z,1008.73
2017-04-16T08:17:55.100Z,1008.69
2017-04-16T08:19:04.755Z,1008.68
2017-04-16T08:20:15.059Z,1008.67
2017-04-16T08:21:24.965Z,1008.75
2017-04-16T08:22:35.243Z,1008.75
2017-04-16T08:23:45.528Z,1008.77
2017-04-16T08:24:55.497Z,1008.75
2017-04-16T08:26:05.480Z,1008.79
2017-04-16T08:27:16.080Z,1008.81
2017-04-16T08:28:26.359Z,1008.79
2017-04-16T08:29:36.642Z,1008.81
2017-04-16T08:30:46.625Z,1008.81
2017-04-16T08:31:56.295Z,1008.8
2017-04-16T08:33:06.885Z,1008.83
2017-04-16T08:34:17.040Z,1008.78
2017-04-16T08:35:27.341Z,1008.82
2017-04-16T08:36:37.284Z,1008.86
2017-04-16T08:37:47.647Z,1008.9
2017-04-16T08:38:58.183Z,1008.86
2017-04-16T08:40:08.481Z,1008.88
2017-04-16T08:41:18.777Z,1008.86
2017-04-16T08:42:29.073Z,1008.95
2017-04-16T08:43:39.374Z,1008.92
2017-04-16T08:44:49.960Z,1008.93
2017-04-16T08:45:59.943Z,1008.97
2017-04-16T08:47:10.223Z,1009.02
2017-04-16T08:48:20.509Z,1008.97
2017-04-16T08:49:30.490Z,1009.05
2017-04-16T08:50:40.718Z,1009.03
2017-04-16T08:51:50.998Z,1009.01
2017-04-16T08:53:00.984Z,1009.03
2017-04-16T08:54:10.674Z,1009.04
2017-04-16T08:55:20.960Z,1009.04
2017-04-16T08:56:31.252Z,1009.05
2017-04-16T08:57:41.532Z,1009.03
2017-04-16T08:58:51.822Z,1009.07
2017-04-16T09:00:01.796Z,1009.04
2017-04-16T09:01:12.079Z,1009
2017-04-16T09:02:22.608Z,1009.09
2017-04-16T09:03:32.596Z,1009.02
2017-04-16T09:04:42.906Z,1009.04
2017-04-16T09:05:52.907Z,1009.07
2017-04-16T09:07:02.582Z,1009.07
2017-04-16T09:08:13.236Z,1009.05
2017-04-16T09:09:23.231Z,1009.04
2017-04-16T09:10:33.606Z,1009.03
2017-04-16T09:11:43.909Z,1009.08
2017-04-16T09:12:53.566Z,1009.09
2017-04-16T09:14:03.484Z,1009.09
2017-04-16T09:15:13.784Z,1009.04
2017-04-16T09:16:23.750Z,1009.09
2017-04-16T09:17:34.042Z,1009.08
2017-04-16T09:18:44.045Z,1009.08
2017-04-16T09:19:54.583Z,1009.09
2017-04-16T09:21:04.876Z,1009.13
2017-04-16T09:22:15.163Z,1009.1
2017-04-16T09:23:25.151Z,1009.11
2017-04-16T09:24:35.437Z,1009.13
2017-04-16T09:25:45.429Z,1009.1
2017-04-16T09:26:55.719Z,1009.09
2017-04-16T09:28:05.702Z,1009.07
2017-04-16T09:29:15.997Z,1009.07
2017-04-16T09:30:26.289Z,1009.15
2017-04-16T09:31:36.837Z,1009.12
2017-04-16T09:32:47.142Z,1009.13
2017-04-16T09:33:57.152Z,1009.26
2017-04-16T09:35:06.829Z,1009.33
2017-04-16T09:36:16.803Z,1009.36
2017-04-16T09:37:27.393Z,1009.32
2017-04-16T09:38:37.686Z,1009.3
2017-04-16T09:39:47.663Z,1009.35
2017-04-16T09:40:57.640Z,1009.37
2017-04-16T09:42:07.678Z,1009.35
2017-04-16T09:43:17.596Z,1009.37
2017-04-16T09:44:27.567Z,1009.39
2017-04-16T09:45:37.862Z,1009.38
2017-04-16T09:46:47.949Z,1009.36
2017-04-16T09:47:58.234Z,1009.4
2017-04-16T09:49:08.479Z,1009.39
2017-04-16T09:50:18.786Z,1009.35
2017-04-16T09:51:29.070Z,1009.34
2017-04-16T09:52:39.055Z,1009.33
2017-04-16T09:53:49.046Z,1009.34
2017-04-16T09:54:59.292Z,1009.33
2017-04-16T09:56:09.577Z,1009.32
2017-04-16T09:57:19.564Z,1009.32
2017-04-16T09:58:29.868Z,1009.3
2017-04-16T09:59:40.156Z,1009.3
2017-04-16T10:00:50.084Z,1009.3
2017-04-16T10:02:00.386Z,1009.31
2017-04-16T10:03:10.672Z,1009.27
2017-04-16T10:04:20.643Z,1009.29
2017-04-16T10:05:30.612Z,1009.26
2017-04-16T10:06:41.162Z,1009.26
2017-04-16T10:07:51.137Z,1009.28
2017-04-16T10:09:01.113Z,1009.28
2017-04-16T10:10:11.088Z,1009.26
2017-04-16T10:11:21.367Z,1009.3
2017-04-16T10:12:31.898Z,1009.23
2017-04-16T10:13:41.889Z,1009.26
2017-04-16T10:14:51.886Z,1009.29
2017-04-16T10:16:02.166Z,1009.28
2017-04-16T10:17:11.512Z,1009.28
2017-04-16T10:18:21.163Z,1009.25
2017-04-16T10:19:31.150Z,1009.27
2017-04-16T10:20:41.445Z,1009.25
2017-04-16T10:21:51.941Z,1009.23
2017-04-16T10:23:02.234Z,1009.25
2017-04-16T10:24:12.771Z,1009.19
2017-04-16T10:25:22.579Z,1009.24
2017-04-16T10:26:32.261Z,1009.3
2017-04-16T10:27:42.552Z,1009.27
2017-04-16T10:28:52.222Z,1009.27
2017-04-16T10:30:02.761Z,1009.3
2017-04-16T10:31:13.057Z,1009.27
2017-04-16T10:32:23.341Z,1009.29
2017-04-16T10:33:33.623Z,1009.29
2017-04-16T10:34:43.926Z,1009.26
2017-04-16T10:35:54.197Z,1009.22
2017-04-16T10:37:03.878Z,1009.29
2017-04-16T10:38:14.170Z,1009.24
2017-04-16T10:39:24.457Z,1009.31
2017-04-16T10:40:34.750Z,1009.35
2017-04-16T10:41:45.021Z,1009.41
2017-04-16T10:42:55.297Z,1009.44
2017-04-16T10:44:05.601Z,1009.42
2017-04-16T10:45:15.582Z,1009.43
2017-04-16T10:46:25.556Z,1009.41
2017-04-16T10:47:35.783Z,1009.43
2017-04-16T10:48:46.091Z,1009.47
2017-04-16T10:49:56.103Z,1009.47
2017-04-16T10:51:06.706Z,1009.5
2017-04-16T10:52:16.984Z,1009.48
2017-04-16T10:53:27.577Z,1009.53
2017-04-16T10:54:37.884Z,1009.5
2017-04-16T10:55:48.237Z,1009.55
2017-04-16T10:56:58.211Z,1009.57
2017-04-16T10:58:08.531Z,1009.59
2017-04-16T10:59:18.758Z,1009.69
2017-04-16T11:00:29.051Z,1009.65
2017-04-16T11:01:39.021Z,1009.75
2017-04-16T11:02:49.322Z,1009.81
2017-04-16T11:03:59.618Z,1009.9
2017-04-16T11:05:10.708Z,1009.78
2017-04-16T11:06:20.383Z,1009.75
2017-04-16T11:07:30.062Z,1009.75
2017-04-16T11:08:40.042Z,1009.76
2017-04-16T11:09:50.338Z,1009.72
2017-04-16T11:11:00.889Z,1009.71
2017-04-16T11:12:10.864Z,1009.72
2017-04-16T11:13:20.844Z,1009.77
2017-04-16T11:14:31.149Z,1009.78
2017-04-16T11:15:41.433Z,1009.81
2017-04-16T11:16:51.981Z,1009.84
2017-04-16T11:18:02.280Z,1009.89
2017-04-16T11:19:12.590Z,1009.87
2017-04-16T11:20:22.902Z,1009.86
2017-04-16T11:21:33.210Z,1009.83
2017-04-16T11:22:43.137Z,1009.84
2017-04-16T11:23:52.804Z,1009.84
2017-04-16T11:25:03.185Z,1009.85
2017-04-16T11:26:13.365Z,1009.85
2017-04-16T11:27:23.343Z,1009.93
2017-04-16T11:28:33.583Z,1009.98
2017-04-16T11:29:43.893Z,1009.99
2017-04-16T11:30:53.883Z,1009.99
2017-04-16T11:32:04.206Z,1010.01
2017-04-16T11:33:14.499Z,1010
2017-04-16T11:34:25.027Z,1009.99
2017-04-16T11:35:35.002Z,1009.97
2017-04-16T11:36:45.302Z,1009.98
2017-04-16T11:37:55.294Z,1009.95
2017-04-16T11:39:05.588Z,1009.96
2017-04-16T11:40:15.889Z,1009.99
2017-04-16T11:41:25.877Z,1009.99
2017-04-16T11:42:35.878Z,1010.01
2017-04-16T11:43:46.174Z,1010.07
2017-04-16T11:44:56.477Z,1010.05
2017-04-16T11:46:06.698Z,1010.05
2017-04-16T11:47:16.672Z,1010.09
2017-04-16T11:48:26.957Z,1010.04
2017-04-16T11:49:36.939Z,1010.05
2017-04-16T11:50:47.274Z,1010.09
2017-04-16T11:51:57.825Z,1010.07
2017-04-16T11:53:07.799Z,1010.02
2017-04-16T11:54:17.786Z,1010.04
2017-04-16T11:55:28.089Z,1010.01
2017-04-16T11:56:38.388Z,1010.02
2017-04-16T11:57:48.802Z,1010.1
2017-04-16T11:58:59.132Z,1010.1
2017-04-16T12:00:08.788Z,1010.05
2017-04-16T12:01:18.768Z,1010.09
2017-04-16T12:02:28.779Z,1010.14
2017-04-16T12:03:39.332Z,1010.15
2017-04-16T12:04:49.623Z,1010.23
2017-04-16T12:05:59.930Z,1010.22
2017-04-16T12:07:10.226Z,1010.27
2017-04-16T12:08:19.583Z,1010.3
2017-04-16T12:09:29.498Z,1010.29
2017-04-16T12:10:39.797Z,1010.28
2017-04-16T12:11:49.469Z,1010.3
2017-04-16T12:12:59.150Z,1010.24
2017-04-16T12:14:09.127Z,1010.26
2017-04-16T12:15:19.353Z,1010.21
2017-04-16T12:16:29.637Z,1010.27
2017-04-16T12:17:39.308Z,1010.32
2017-04-16T12:18:49.605Z,1010.33
2017-04-16T12:19:59.889Z,1010.3
2017-04-16T12:21:10.116Z,1010.3
2017-04-16T12:22:20.096Z,1010.31
2017-04-16T12:23:30.390Z,1010.29
2017-04-16T12:24:40.683Z,1010.33
2017-04-16T12:25:50.987Z,1010.31
2017-04-16T12:27:01.525Z,1010.3
2017-04-16T12:28:11.823Z,1010.34
2017-04-16T12:29:21.517Z,1010.35
2017-04-16T12:30:31.828Z,1010.41
2017-04-16T12:31:42.130Z,1010.43
2017-04-16T12:32:52.895Z,1010.41
2017-04-16T12:34:03.190Z,1010.46
2017-04-16T12:35:13.198Z,1010.48
2017-04-16T12:36:23.171Z,1010.49
2017-04-16T12:37:33.472Z,1010.5
2017-04-16T12:38:44.091Z,1010.51
2017-04-16T12:39:54.099Z,1010.54
2017-04-16T12:41:03.760Z,1010.53
2017-04-16T12:42:14.060Z,1010.52
2017-04-16T12:43:24.355Z,1010.45
2017-04-16T12:44:34.886Z,1010.51
2017-04-16T12:45:44.887Z,1010.5
2017-04-16T12:46:55.192Z,1010.53
2017-04-16T12:48:05.153Z,1010.55
2017-04-16T12:49:14.830Z,1010.54
2017-04-16T12:50:25.094Z,1010.58
2017-04-16T12:51:35.390Z,1010.55
2017-04-16T12:52:45.681Z,1010.6
2017-04-16T12:53:55.676Z,1010.66
2017-04-16T12:55:05.966Z,1010.68
2017-04-16T12:56:16.513Z,1010.71
2017-04-16T12:57:26.803Z,1010.7
2017-04-16T12:58:37.096Z,1010.7
2017-04-16T12:59:47.088Z,1010.72
2017-04-16T13:00:57.073Z,1010.64
2017-04-16T13:02:07.300Z,1010.59
2017-04-16T13:03:17.610Z,1010.57
2017-04-16T13:04:27.595Z,1010.59
2017-04-16T13:05:37.880Z,1010.57
2017-04-16T13:06:48.172Z,1010.56
2017-04-16T13:07:58.415Z,1010.47
2017-04-16T13:09:08.396Z,1010.49
2017-04-16T13:10:18.694Z,1010.48
2017-04-16T13:11:29.009Z,1010.51
2017-04-16T13:12:38.983Z,1010.49
2017-04-16T13:13:49.537Z,1010.53
2017-04-16T13:14:59.830Z,1010.54
2017-04-16T13:16:09.807Z,1010.53
2017-04-16T13:17:19.771Z,1010.54
2017-04-16T13:18:29.737Z,1010.5
2017-04-16T13:19:40.335Z,1010.5
2017-04-16T13:20:50.332Z,1010.54
2017-04-16T13:22:00.618Z,1010.53
2017-04-16T13:23:10.283Z,1010.47
2017-04-16T13:24:20.265Z,1010.48
2017-04-16T13:25:30.806Z,1010.45
2017-04-16T13:26:41.090Z,1010.45
2017-04-16T13:27:51.393Z,1010.48
2017-04-16T13:29:01.068Z,1010.47
2017-04-16T13:30:11.370Z,1010.45
2017-04-16T13:31:21.919Z,1010.46
2017-04-16T13:32:32.210Z,1010.46
2017-04-16T13:33:42.203Z,1010.48
2017-04-16T13:34:52.503Z,1010.46
2017-04-16T13:36:02.483Z,1010.45
2017-04-16T13:37:12.870Z,1010.43
2017-04-16T13:38:23.315Z,1010.45
2017-04-16T13:39:33.807Z,1010.44
2017-04-16T13:40:44.311Z,1010.46
2017-04-16T13:41:53.978Z,1010.48
2017-04-16T13:43:04.274Z,1010.5
2017-04-16T13:44:14.576Z,1010.56
2017-04-16T13:45:24.864Z,1010.53
2017-04-16T13:46:34.840Z,1010.55
2017-04-16T13:47:45.133Z,1010.54
2017-04-16T13:48:55.737Z,1010.56
2017-04-16T13:50:06.049Z,1010.57
2017-04-16T13:51:16.023Z,1010.53
2017-04-16T13:52:25.684Z,1010.47
2017-04-16T13:53:35.049Z,1010.51
2017-04-16T13:54:45.588Z,1010.52
2017-04-16T13:55:55.871Z,1010.51
2017-04-16T13:57:06.166Z,1010.51
2017-04-16T13:58:16.455Z,1010.52
2017-04-16T13:59:26.144Z,1010.57
2017-04-16T14:00:36.380Z,1010.55
2017-04-16T14:01:46.350Z,1010.53
2017-04-16T14:02:56.643Z,1010.49
2017-04-16T14:04:06.620Z,1010.54
2017-04-16T14:05:16.600Z,1010.46
2017-04-16T14:06:27.180Z,1010.45
2017-04-16T14:07:37.468Z,1010.52
2017-04-16T14:08:47.769Z,1010.45
2017-04-16T14:09:57.449Z,1010.46
2017-04-16T14:11:07.744Z,1010.51
2017-04-16T14:12:18.289Z,1010.5